createdAt,value
2018-11-28T00:00:23.805Z,68.20
2018-11-28T00:02:26.740Z,68.20
2018-11-28T00:04:29.695Z,68.30
2018-11-28T00:06:32.643Z,68.30
2018-11-28T00:08:35.568Z,68.30
2018-11-28T00:10:38.528Z,68.30
2018-11-28T00:12:41.457Z,68.20
2018-11-28T00:14:44.424Z,68.30
2018-11-28T00:16:47.391Z,68.20
2018-11-28T00:18:51.676Z,68.30
2018-11-28T00:20:54.609Z,68.30
2018-11-28T00:22:58.595Z,68.30
2018-11-28T00:25:01.534Z,68.30
2018-11-28T00:27:04.556Z,68.30
2018-11-28T00:29:07.539Z,68.30
2018-11-28T00:31:11.240Z,68.50
2018-11-28T00:33:15.079Z,68.50
2018-11-28T00:35:18.028Z,68.40
2018-11-28T00:37:20.959Z,68.50
2018-11-28T00:39:24.121Z,68.50
2018-11-28T00:41:27.060Z,68.50
2018-11-28T00:43:29.996Z,68.50
2018-11-28T00:45:33.051Z,68.50
2018-11-28T00:47:35.977Z,68.50
2018-11-28T00:49:39.013Z,68.50
2018-11-28T00:51:42.745Z,68.50
2018-11-28T00:53:45.677Z,68.40
2018-11-28T00:55:49.390Z,68.60
2018-11-28T00:57:53.209Z,68.50
2018-11-28T00:59:56.142Z,68.40
2018-11-28T01:01:59.162Z,68.50
2018-11-28T01:04:02.879Z,68.60
2018-11-28T01:06:05.808Z,68.50
2018-11-28T01:08:08.755Z,68.50
2018-11-28T01:10:11.707Z,68.50
2018-11-28T01:12:15.415Z,68.60
2018-11-28T01:14:18.513Z,68.70
2018-11-28T01:16:21.474Z,69.40
2018-11-28T01:18:24.428Z,68.70
2018-11-28T01:20:27.391Z,68.70
2018-11-28T01:22:30.423Z,68.60
2018-11-28T01:24:34.228Z,68.60
2018-11-28T01:26:38.031Z,68.60
2018-11-28T01:28:46.322Z,68.60
2018-11-28T01:30:43.908Z,68.60
2018-11-28T01:32:46.881Z,68.60
2018-11-28T01:34:50.677Z,68.60
2018-11-28T01:36:54.479Z,68.50
2018-11-28T01:38:58.284Z,68.60
2018-11-28T01:41:01.980Z,68.40
2018-11-28T01:43:05.704Z,68.40
2018-11-28T01:45:08.735Z,68.40
2018-11-28T01:47:11.675Z,68.30
2018-11-28T01:49:14.753Z,68.30
2018-11-28T01:51:17.683Z,68.40
2018-11-28T01:53:20.942Z,68.30
2018-11-28T01:55:23.919Z,68.30
2018-11-28T01:57:26.851Z,68.30
2018-11-28T01:59:30.556Z,68.30
2018-11-28T02:01:33.527Z,68.20
2018-11-28T02:03:36.458Z,68.20
2018-11-28T02:05:39.416Z,68.30
2018-11-28T02:07:43.104Z,68.20
2018-11-28T02:09:46.818Z,68.10
2018-11-28T02:11:50.548Z,68.10
2018-11-28T02:13:53.602Z,68.00
2018-11-28T02:15:57.287Z,68.90
2018-11-28T02:18:01.105Z,68.20
2018-11-28T02:20:04.832Z,68.20
2018-11-28T02:22:07.763Z,68.20
2018-11-28T02:24:11.114Z,68.20
2018-11-28T02:26:14.043Z,68.20
2018-11-28T02:28:17.740Z,68.20
2018-11-28T02:30:21.598Z,68.90
2018-11-28T02:32:24.534Z,68.20
2018-11-28T02:34:28.235Z,68.10
2018-11-28T02:36:32.072Z,68.10
2018-11-28T02:38:35.003Z,68.00
2018-11-28T02:40:37.931Z,68.00
2018-11-28T02:42:41.061Z,68.10
2018-11-28T02:44:49.309Z,68.10
2018-11-28T02:46:52.246Z,68.10
2018-11-28T02:48:55.398Z,68.10
2018-11-28T02:50:58.333Z,68.00
2018-11-28T02:53:01.895Z,68.00
2018-11-28T02:55:04.858Z,68.10
2018-11-28T02:57:07.921Z,68.10
2018-11-28T02:59:11.721Z,68.00
2018-11-28T03:01:15.570Z,68.10
2018-11-28T03:03:18.614Z,68.00
2018-11-28T03:05:22.438Z,68.00
2018-11-28T03:07:26.144Z,68.00
2018-11-28T03:09:29.065Z,68.00
2018-11-28T03:11:32.005Z,68.00
2018-11-28T03:13:35.889Z,68.20
2018-11-28T03:15:38.831Z,68.10
2018-11-28T03:17:41.765Z,68.10
2018-11-28T03:19:44.849Z,68.20
2018-11-28T03:21:47.791Z,68.20
2018-11-28T03:23:50.728Z,68.20
2018-11-28T03:25:53.802Z,68.20
2018-11-28T03:27:56.738Z,68.20
2018-11-28T03:30:01.201Z,68.20
2018-11-28T03:32:04.337Z,68.20
2018-11-28T03:34:07.348Z,68.20
2018-11-28T03:36:11.067Z,68.20
2018-11-28T03:38:14.167Z,68.10
2018-11-28T03:40:17.221Z,68.10
2018-11-28T03:42:20.182Z,68.10
2018-11-28T03:44:24.009Z,69.00
2018-11-28T03:46:27.818Z,68.10
2018-11-28T03:48:30.778Z,68.90
2018-11-28T03:50:34.617Z,68.10
2018-11-28T03:52:37.556Z,68.10
2018-11-28T03:54:40.481Z,68.00
2018-11-28T03:56:43.873Z,68.00
2018-11-28T03:58:46.854Z,67.90
2018-11-28T04:00:49.803Z,68.00
2018-11-28T04:02:53.536Z,68.10
2018-11-28T04:04:56.466Z,68.00
2018-11-28T04:06:59.401Z,68.00
2018-11-28T04:09:02.549Z,68.00
2018-11-28T04:11:05.481Z,68.00
2018-11-28T04:13:08.412Z,68.10
2018-11-28T04:15:11.546Z,68.20
2018-11-28T04:17:14.483Z,68.20
2018-11-28T04:19:18.197Z,68.30
2018-11-28T04:21:22.141Z,68.30
2018-11-28T04:23:25.072Z,68.30
2018-11-28T04:25:28.014Z,68.30
2018-11-28T04:27:31.001Z,68.40
2018-11-28T04:29:33.949Z,68.50
2018-11-28T04:31:37.633Z,68.60
2018-11-28T04:33:40.754Z,68.60
2018-11-28T04:35:43.721Z,68.60
2018-11-28T04:37:46.663Z,68.70
2018-11-28T04:39:50.539Z,69.10
2018-11-28T04:41:53.491Z,68.70
2018-11-28T04:43:56.453Z,68.70
2018-11-28T04:46:00.282Z,68.90
2018-11-28T04:48:03.238Z,68.80
2018-11-28T04:50:06.241Z,68.90
2018-11-28T04:52:09.350Z,69.00
2018-11-28T04:54:12.993Z,69.00
2018-11-28T04:56:15.929Z,69.10
2018-11-28T04:58:19.013Z,69.10
2018-11-28T05:00:22.029Z,69.10
2018-11-28T05:02:25.041Z,69.10
2018-11-28T05:04:28.785Z,69.30
2018-11-28T05:06:31.724Z,69.20
2018-11-28T05:08:35.526Z,69.40
2018-11-28T05:10:39.362Z,69.50
2018-11-28T05:12:42.298Z,69.40
2018-11-28T05:14:46.113Z,69.60
2018-11-28T05:16:49.851Z,69.60
2018-11-28T05:18:52.899Z,69.60
2018-11-28T05:20:56.585Z,69.60
2018-11-28T05:22:59.721Z,69.60
2018-11-28T05:25:02.674Z,69.60
2018-11-28T05:27:06.380Z,69.70
2018-11-28T05:29:09.454Z,69.70
2018-11-28T05:31:13.153Z,69.70
2018-11-28T05:33:16.218Z,69.60
2018-11-28T05:35:19.198Z,69.60
2018-11-28T05:37:22.136Z,69.80
2018-11-28T05:39:25.076Z,69.80
2018-11-28T05:41:28.818Z,69.90
2018-11-28T05:43:31.749Z,69.80
2018-11-28T05:45:35.447Z,70.60
2018-11-28T05:47:39.193Z,69.80
2018-11-28T05:49:42.130Z,69.80
2018-11-28T05:51:45.073Z,69.80
2018-11-28T05:53:48.142Z,69.80
2018-11-28T05:55:51.082Z,69.80
2018-11-28T05:57:54.901Z,69.90
2018-11-28T05:59:58.649Z,69.90
2018-11-28T06:02:01.581Z,69.90
2018-11-28T06:04:05.283Z,69.80
2018-11-28T06:06:09.024Z,69.80
2018-11-28T06:08:12.080Z,69.80
2018-11-28T06:10:15.012Z,69.80
2018-11-28T06:12:17.988Z,69.70
2018-11-28T06:14:21.019Z,69.70
2018-11-28T06:16:24.720Z,69.70
2018-11-28T06:18:28.862Z,69.70
2018-11-28T06:20:31.913Z,69.60
2018-11-28T06:22:35.613Z,69.60
2018-11-28T06:24:39.620Z,69.60
2018-11-28T06:26:43.422Z,69.60
2018-11-28T06:28:47.122Z,69.60
2018-11-28T06:30:50.847Z,69.70
2018-11-28T06:32:53.907Z,69.60
2018-11-28T06:34:57.607Z,69.50
2018-11-28T06:37:01.341Z,69.40
2018-11-28T06:39:04.288Z,69.40
2018-11-28T06:41:07.232Z,69.30
2018-11-28T06:43:10.358Z,69.10
2018-11-28T06:45:14.060Z,69.40
2018-11-28T06:47:16.997Z,69.30
2018-11-28T06:49:19.961Z,69.50
2018-11-28T06:51:23.321Z,69.50
2018-11-28T06:53:26.245Z,69.60
2018-11-28T06:55:29.253Z,69.60
2018-11-28T06:57:32.293Z,69.60
2018-11-28T06:59:35.224Z,69.60
2018-11-28T07:01:38.365Z,69.60
2018-11-28T07:03:41.297Z,69.60
2018-11-28T07:05:44.234Z,69.70
2018-11-28T07:07:47.311Z,69.70
2018-11-28T07:09:50.903Z,69.90
2018-11-28T07:11:53.837Z,69.70
2018-11-28T07:13:56.813Z,69.00
2018-11-28T07:15:59.737Z,69.00
2018-11-28T07:18:03.429Z,69.40
2018-11-28T07:20:06.421Z,69.40
2018-11-28T07:22:09.361Z,69.50
2018-11-28T07:24:13.915Z,69.70
2018-11-28T07:26:17.641Z,69.80
2018-11-28T07:28:20.579Z,69.70
2018-11-28T07:30:24.277Z,69.90
2018-11-28T07:32:27.418Z,70.10
2018-11-28T07:34:30.363Z,69.70
2018-11-28T07:36:33.321Z,69.70
2018-11-28T07:38:37.795Z,69.90
2018-11-28T07:40:40.725Z,69.80
2018-11-28T07:42:44.428Z,69.90
2018-11-28T07:44:47.414Z,69.90
2018-11-28T07:46:51.044Z,69.90
2018-11-28T07:48:54.012Z,70.00
2018-11-28T07:50:57.746Z,70.00
2018-11-28T07:53:00.668Z,69.90
2018-11-28T07:55:03.618Z,69.80
2018-11-28T07:57:06.712Z,69.70
2018-11-28T07:59:09.744Z,69.60
2018-11-28T08:01:13.461Z,69.70
2018-11-28T08:03:16.567Z,69.70
2018-11-28T08:05:19.497Z,69.80
2018-11-28T08:07:23.225Z,69.90
2018-11-28T08:09:26.340Z,69.80
2018-11-28T08:11:29.382Z,69.80
2018-11-28T08:13:33.094Z,70.00
2018-11-28T08:15:36.173Z,70.00
2018-11-28T08:17:39.893Z,70.10
2018-11-28T08:19:42.853Z,70.00
2018-11-28T08:21:46.577Z,70.30
2018-11-28T08:23:49.635Z,70.10
2018-11-28T08:25:53.331Z,70.30
2018-11-28T08:27:57.376Z,70.30
2018-11-28T08:30:00.244Z,70.20
2018-11-28T08:32:03.229Z,70.30
2018-11-28T08:34:06.292Z,70.30
2018-11-28T08:36:10.018Z,70.40
2018-11-28T08:38:13.078Z,70.30
2018-11-28T08:40:17.252Z,70.30
2018-11-28T08:42:20.203Z,70.20
2018-11-28T08:44:23.128Z,70.40
2018-11-28T08:46:26.967Z,70.50
2018-11-28T08:48:30.653Z,70.60
2018-11-28T08:50:34.361Z,70.60
2018-11-28T08:52:37.489Z,70.50
2018-11-28T08:54:40.425Z,70.60
2018-11-28T08:56:44.784Z,70.80
2018-11-28T08:58:47.760Z,70.80
2018-11-28T09:00:50.806Z,70.80
2018-11-28T09:02:54.510Z,70.90
2018-11-28T09:04:57.729Z,70.90
2018-11-28T09:07:00.661Z,71.00
2018-11-28T09:09:03.709Z,70.90
2018-11-28T09:11:06.709Z,70.90
2018-11-28T09:13:09.729Z,70.80
2018-11-28T09:15:13.449Z,70.90
2018-11-28T09:17:16.419Z,70.70
2018-11-28T09:19:19.360Z,70.80
2018-11-28T09:21:23.197Z,70.90
2018-11-28T09:23:27.672Z,70.80
2018-11-28T09:25:30.699Z,70.70
2018-11-28T09:27:34.501Z,70.80
2018-11-28T09:29:38.270Z,70.80
2018-11-28T09:31:42.929Z,70.60
2018-11-28T09:33:45.875Z,70.60
2018-11-28T09:35:48.858Z,70.60
2018-11-28T09:37:51.875Z,70.50
2018-11-28T09:39:55.570Z,71.30
2018-11-28T09:41:59.488Z,70.40
2018-11-28T09:44:02.461Z,70.30
2018-11-28T09:46:06.264Z,70.20
2018-11-28T09:48:10.017Z,70.10
2018-11-28T09:50:13.049Z,70.00
2018-11-28T09:52:16.765Z,69.80
2018-11-28T09:54:20.681Z,69.70
2018-11-28T09:56:23.613Z,69.60
2018-11-28T09:58:26.540Z,69.50
2018-11-28T10:00:29.857Z,69.30
2018-11-28T10:02:32.713Z,69.40
2018-11-28T10:04:35.672Z,69.30
2018-11-28T10:06:39.528Z,69.30
2018-11-28T10:08:42.458Z,69.10
2018-11-28T10:10:46.262Z,69.00
2018-11-28T10:12:50.002Z,68.90
2018-11-28T10:14:52.932Z,68.90
2018-11-28T10:16:57.015Z,68.90
2018-11-28T10:18:59.669Z,68.80
2018-11-28T10:21:02.608Z,68.90
2018-11-28T10:23:06.309Z,68.80
2018-11-28T10:25:10.152Z,68.70
2018-11-28T10:27:13.102Z,68.70
2018-11-28T10:29:16.066Z,68.70
2018-11-28T10:31:19.847Z,68.70
2018-11-28T10:33:22.785Z,68.60
2018-11-28T10:35:25.719Z,68.50
2018-11-28T10:37:28.857Z,68.40
2018-11-28T10:39:31.797Z,68.30
2018-11-28T10:41:35.519Z,68.30
2018-11-28T10:43:38.557Z,68.20
2018-11-28T10:45:41.513Z,68.00
2018-11-28T10:47:44.450Z,68.00
2018-11-28T10:49:48.193Z,67.90
2018-11-28T10:51:51.131Z,67.80
2018-11-28T10:53:54.863Z,67.80
2018-11-28T10:55:57.826Z,67.70
2018-11-28T10:58:01.549Z,67.70
2018-11-28T11:00:04.482Z,67.60
2018-11-28T11:02:07.477Z,67.60
2018-11-28T11:04:11.192Z,67.40
2018-11-28T11:06:14.169Z,67.30
2018-11-28T11:08:24.643Z,67.30
2018-11-28T11:10:33.250Z,67.30
2018-11-28T11:12:36.978Z,67.20
2018-11-28T11:14:40.881Z,67.20
2018-11-28T11:16:43.868Z,67.10
2018-11-28T11:18:46.798Z,67.10
2018-11-28T11:20:49.760Z,66.90
2018-11-28T11:22:52.693Z,66.90
2018-11-28T11:24:55.640Z,66.80
2018-11-28T11:26:58.648Z,66.70
2018-11-28T11:29:02.438Z,66.60
2018-11-28T11:31:05.360Z,66.40
2018-11-28T11:33:09.994Z,66.20
2018-11-28T11:35:13.025Z,66.20
2018-11-28T11:37:16.841Z,66.10
2018-11-28T11:39:20.677Z,66.20
2018-11-28T11:41:23.629Z,66.00
2018-11-28T11:43:27.349Z,66.00
2018-11-28T11:45:30.319Z,65.90
2018-11-28T11:47:33.267Z,66.00
2018-11-28T11:49:36.204Z,65.90
2018-11-28T11:51:39.306Z,65.90
2018-11-28T11:53:43.090Z,65.60
2018-11-28T11:55:46.145Z,65.60
2018-11-28T11:57:49.901Z,65.40
2018-11-28T11:59:52.865Z,65.30
2018-11-28T12:01:55.826Z,65.20
2018-11-28T12:03:58.979Z,65.10
2018-11-28T12:06:01.868Z,65.10
2018-11-28T12:08:05.585Z,64.80
2018-11-28T12:10:09.041Z,64.70
2018-11-28T12:12:12.457Z,64.70
2018-11-28T12:14:16.271Z,64.60
2018-11-28T12:16:21.623Z,64.50
2018-11-28T12:18:22.962Z,64.50
2018-11-28T12:20:25.905Z,64.40
2018-11-28T12:22:28.877Z,64.20
2018-11-28T12:24:31.838Z,64.10
2018-11-28T12:26:34.890Z,63.90
2018-11-28T12:28:38.277Z,63.90
2018-11-28T12:30:42.591Z,63.60
2018-11-28T12:32:45.677Z,63.50
2018-11-28T12:34:50.496Z,63.30
2018-11-28T12:36:51.851Z,63.20
2018-11-28T12:38:54.827Z,63.10
2018-11-28T12:40:58.765Z,62.80
2018-11-28T12:43:01.824Z,62.80
2018-11-28T12:45:04.782Z,62.70
2018-11-28T12:47:08.606Z,62.90
2018-11-28T12:49:11.555Z,62.40
2018-11-28T12:51:14.513Z,62.40
2018-11-28T12:53:17.473Z,62.20
2018-11-28T12:55:20.426Z,62.10
2018-11-28T12:57:23.465Z,61.90
2018-11-28T12:59:26.641Z,61.80
2018-11-28T13:01:29.588Z,61.70
2018-11-28T13:03:33.394Z,61.60
2018-11-28T13:05:37.344Z,61.50
2018-11-28T13:07:40.395Z,61.50
2018-11-28T13:09:43.468Z,61.50
2018-11-28T13:11:47.209Z,61.30
2018-11-28T13:13:50.161Z,61.20
2018-11-28T13:15:53.126Z,61.10
2018-11-28T13:17:56.961Z,61.00
2018-11-28T13:19:59.894Z,61.00
2018-11-28T13:22:03.603Z,60.80
2018-11-28T13:24:06.736Z,60.80
2018-11-28T13:26:09.819Z,60.70
2018-11-28T13:28:12.762Z,60.70
2018-11-28T13:30:15.741Z,60.60
2018-11-28T13:32:18.680Z,60.40
2018-11-28T13:34:21.617Z,60.30
2018-11-28T13:36:24.606Z,60.30
2018-11-28T13:38:27.590Z,60.20
2018-11-28T13:40:31.383Z,60.40
2018-11-28T13:42:35.117Z,59.90
2018-11-28T13:44:38.051Z,60.50
2018-11-28T13:46:42.619Z,59.60
2018-11-28T13:48:45.682Z,59.70
2018-11-28T13:50:49.645Z,59.60
2018-11-28T13:52:52.348Z,59.50
2018-11-28T13:55:38.597Z,59.40
2018-11-28T13:57:03.681Z,59.90
2018-11-28T13:59:02.825Z,59.30
2018-11-28T14:01:06.686Z,59.20
2018-11-28T14:03:09.748Z,59.10
2018-11-28T14:05:12.817Z,59.10
2018-11-28T14:07:16.580Z,59.10
2018-11-28T14:09:19.534Z,59.00
2018-11-28T14:11:22.490Z,59.10
2018-11-28T14:13:25.627Z,59.00
2018-11-28T14:15:28.529Z,59.00
2018-11-28T14:17:31.534Z,58.90
2018-11-28T14:19:35.289Z,58.70
2018-11-28T14:21:38.320Z,58.70
2018-11-28T14:23:41.325Z,58.70
2018-11-28T14:25:44.513Z,58.60
2018-11-28T14:27:47.452Z,58.50
2018-11-28T14:29:51.280Z,58.40
2018-11-28T14:31:54.289Z,58.30
2018-11-28T14:33:57.222Z,58.30
2018-11-28T14:36:00.204Z,58.10
2018-11-28T14:38:03.297Z,58.00
2018-11-28T14:40:06.420Z,57.90
2018-11-28T14:42:09.370Z,57.70
2018-11-28T14:44:13.237Z,58.50
2018-11-28T14:46:16.175Z,57.80
2018-11-28T14:48:19.148Z,57.80
2018-11-28T14:50:22.217Z,57.70
2018-11-28T14:52:25.920Z,57.60
2018-11-28T14:54:28.873Z,57.60
2018-11-28T14:56:31.865Z,57.60
2018-11-28T14:58:34.805Z,57.60
2018-11-28T15:00:37.866Z,57.50
2018-11-28T15:02:41.640Z,57.70
2018-11-28T15:04:45.370Z,57.70
2018-11-28T15:06:48.312Z,57.60
2018-11-28T15:08:51.294Z,57.60
2018-11-28T15:10:54.317Z,57.50
2018-11-28T15:12:58.120Z,57.50
2018-11-28T15:15:01.869Z,57.50
2018-11-28T15:17:04.905Z,57.40
2018-11-28T15:19:08.621Z,57.50
2018-11-28T15:21:12.452Z,57.30
2018-11-28T15:23:15.401Z,57.30
2018-11-28T15:25:18.340Z,57.30
2018-11-28T15:27:22.200Z,57.40
2018-11-28T15:29:25.161Z,57.30
2018-11-28T15:31:28.097Z,57.40
2018-11-28T15:33:31.432Z,57.50
2018-11-28T15:35:35.233Z,57.60
2018-11-28T15:37:38.177Z,57.50
2018-11-28T15:39:41.324Z,57.60
2018-11-28T15:41:44.891Z,57.60
2018-11-28T15:43:48.590Z,57.80
2018-11-28T15:45:52.341Z,57.70
2018-11-28T15:47:55.522Z,57.70
2018-11-28T15:49:58.474Z,57.70
2018-11-28T15:52:01.582Z,57.80
2018-11-28T15:54:04.530Z,57.90
2018-11-28T15:56:07.515Z,57.90
2018-11-28T15:58:11.249Z,58.00
2018-11-28T16:00:14.172Z,57.90
2018-11-28T16:02:17.129Z,58.00
2018-11-28T16:04:20.317Z,58.10
2018-11-28T16:06:23.325Z,58.20
2018-11-28T16:08:26.269Z,58.20
2018-11-28T16:10:31.863Z,58.20
2018-11-28T16:12:35.687Z,57.70
2018-11-28T16:14:39.419Z,58.30
2018-11-28T16:16:42.404Z,58.20
2018-11-28T16:18:45.482Z,58.30
2018-11-28T16:20:48.462Z,58.30
2018-11-28T16:22:51.478Z,58.30
2018-11-28T16:24:54.421Z,58.30
2018-11-28T16:26:57.372Z,58.40
2018-11-28T16:29:01.230Z,58.60
2018-11-28T16:31:04.280Z,58.50
2018-11-28T16:33:08.004Z,58.50
2018-11-28T16:35:10.965Z,58.50
2018-11-28T16:37:13.909Z,58.50
2018-11-28T16:39:16.846Z,58.50
2018-11-28T16:41:19.839Z,58.50
2018-11-28T16:43:22.769Z,58.60
2018-11-28T16:45:25.791Z,58.50
2018-11-28T16:47:28.884Z,58.50
2018-11-28T16:49:31.821Z,58.60
2018-11-28T16:51:35.522Z,58.60
2018-11-28T16:53:39.710Z,58.70
2018-11-28T16:55:42.656Z,58.60
2018-11-28T16:57:45.593Z,58.60
2018-11-28T16:59:49.407Z,58.70
2018-11-28T17:01:53.152Z,58.70
2018-11-28T17:03:56.113Z,58.60
2018-11-28T17:05:59.203Z,58.60
2018-11-28T17:08:02.137Z,58.60
2018-11-28T17:10:05.109Z,58.60
2018-11-28T17:12:08.111Z,58.60
2018-11-28T17:14:11.055Z,58.60
2018-11-28T17:16:14.102Z,58.70
2018-11-28T17:18:17.856Z,58.80
2018-11-28T17:20:20.802Z,58.80
2018-11-28T17:22:23.748Z,58.90
2018-11-28T17:24:27.706Z,59.00
2018-11-28T17:26:30.673Z,59.00
2018-11-28T17:28:33.626Z,59.00
2018-11-28T17:30:37.397Z,59.20
2018-11-28T17:32:42.165Z,59.10
2018-11-28T17:34:45.971Z,59.30
2018-11-28T17:36:49.052Z,59.20
2018-11-28T17:38:51.997Z,59.30
2018-11-28T17:40:56.479Z,59.30
2018-11-28T17:42:59.499Z,59.20
2018-11-28T17:45:02.418Z,59.30
2018-11-28T17:47:05.374Z,59.20
2018-11-28T17:49:08.523Z,59.30
2018-11-28T17:51:11.570Z,59.40
2018-11-28T17:53:15.273Z,59.50
2018-11-28T17:55:18.572Z,59.50
2018-11-28T17:57:21.514Z,59.60
2018-11-28T17:59:24.459Z,59.70
2018-11-28T18:01:27.533Z,59.70
2018-11-28T18:03:30.493Z,59.70
2018-11-28T18:05:34.193Z,59.80
2018-11-28T18:07:37.958Z,60.00
2018-11-28T18:09:40.922Z,60.00
2018-11-28T18:11:43.859Z,60.00
2018-11-28T18:13:47.578Z,60.00
2018-11-28T18:15:51.372Z,60.00
2018-11-28T18:17:54.324Z,59.90
2018-11-28T18:19:58.193Z,60.50
2018-11-28T18:22:01.136Z,59.80
2018-11-28T18:24:04.081Z,59.70
2018-11-28T18:26:07.070Z,59.60
2018-11-28T18:28:11.113Z,60.30
2018-11-28T18:30:14.399Z,59.60
2018-11-28T18:32:17.398Z,59.60
2018-11-28T18:34:20.372Z,59.60
2018-11-28T18:36:23.312Z,59.60
2018-11-28T18:38:27.166Z,59.50
2018-11-28T18:40:30.100Z,59.50
2018-11-28T18:42:33.024Z,59.50
2018-11-28T18:44:36.977Z,59.50
2018-11-28T18:46:39.905Z,59.50
2018-11-28T18:48:42.852Z,59.60
2018-11-28T18:50:46.001Z,59.50
2018-11-28T18:52:48.934Z,59.50
2018-11-28T18:54:52.665Z,58.90
2018-11-28T18:56:55.653Z,59.40
2018-11-28T18:58:58.589Z,59.30
2018-11-28T19:01:01.513Z,59.30
2018-11-28T19:03:04.580Z,59.20
2018-11-28T19:05:08.977Z,59.00
2018-11-28T19:07:11.956Z,59.00
2018-11-28T19:09:15.004Z,58.90
2018-11-28T19:11:18.024Z,58.80
2018-11-28T19:13:21.731Z,58.40
2018-11-28T19:15:24.867Z,58.60
2018-11-28T19:17:28.137Z,58.60
2018-11-28T19:19:31.071Z,58.50
2018-11-28T19:21:34.405Z,58.50
2018-11-28T19:23:37.339Z,58.60
2018-11-28T19:25:40.362Z,58.50
2018-11-28T19:27:44.189Z,58.50
2018-11-28T19:29:47.131Z,58.40
2018-11-28T19:31:50.961Z,58.50
2018-11-28T19:33:54.077Z,58.40
2018-11-28T19:35:57.121Z,58.30
2018-11-28T19:38:00.923Z,58.30
2018-11-28T19:40:04.669Z,58.40
2018-11-28T19:42:07.709Z,58.30
2018-11-28T19:44:11.511Z,58.30
2018-11-28T19:46:14.561Z,58.20
2018-11-28T19:48:17.497Z,58.40
2018-11-28T19:50:20.425Z,58.40
2018-11-28T19:52:23.585Z,58.50
2018-11-28T19:54:26.633Z,58.60
2018-11-28T19:56:29.569Z,58.80
2018-11-28T19:58:32.524Z,58.80
2018-11-28T20:00:35.448Z,58.80
2018-11-28T20:02:38.402Z,58.80
2018-11-28T20:04:41.370Z,59.00
2018-11-28T20:06:45.042Z,59.10
2018-11-28T20:08:48.029Z,59.30
2018-11-28T20:10:51.018Z,59.40
2018-11-28T20:12:53.974Z,59.50
2018-11-28T20:14:56.907Z,59.60
2018-11-28T20:16:59.873Z,59.70
2018-11-28T20:19:02.813Z,59.80
2018-11-28T20:21:05.772Z,59.70
2018-11-28T20:23:08.940Z,59.80
2018-11-28T20:25:11.895Z,60.00
2018-11-28T20:27:15.694Z,60.70
2018-11-28T20:29:19.497Z,60.90
2018-11-28T20:31:23.202Z,61.00
2018-11-28T20:33:26.180Z,60.90
2018-11-28T20:35:29.469Z,61.20
2018-11-28T20:37:32.425Z,61.30
2018-11-28T20:39:35.386Z,61.60
2018-11-28T20:41:38.381Z,61.80
2018-11-28T20:43:42.117Z,62.30
2018-11-28T20:45:45.061Z,62.30
2018-11-28T20:47:48.052Z,62.60
2018-11-28T20:49:52.514Z,63.20
2018-11-28T20:51:55.457Z,63.10
2018-11-28T20:53:59.312Z,63.80
2018-11-28T20:56:02.263Z,63.60
2018-11-28T20:58:05.991Z,64.20
2018-11-28T21:00:08.966Z,64.10
2018-11-28T21:02:11.932Z,64.30
2018-11-28T21:04:14.878Z,64.60
2018-11-28T21:06:18.641Z,65.10
2018-11-28T21:08:21.585Z,65.10
2018-11-28T21:10:25.299Z,65.50
2018-11-28T21:12:29.026Z,65.70
2018-11-28T21:14:32.001Z,65.60
2018-11-28T21:16:34.940Z,65.90
2018-11-28T21:18:37.931Z,66.00
2018-11-28T21:20:41.639Z,66.40
2018-11-28T21:22:44.656Z,66.30
2018-11-28T21:24:47.894Z,66.50
2018-11-28T21:26:50.827Z,66.60
2018-11-28T21:28:53.768Z,66.70
2018-11-28T21:30:57.521Z,67.10
2018-11-28T21:33:00.468Z,67.00
2018-11-28T21:35:04.177Z,67.20
2018-11-28T21:37:07.427Z,67.20
2018-11-28T21:39:11.262Z,67.40
2018-11-28T21:41:14.217Z,67.20
2018-11-28T21:43:17.959Z,67.30
2018-11-28T21:45:20.894Z,67.30
2018-11-28T21:47:23.873Z,67.40
2018-11-28T21:49:26.853Z,67.50
2018-11-28T21:51:29.804Z,67.60
2018-11-28T21:53:32.756Z,67.70
2018-11-28T21:55:35.734Z,67.70
2018-11-28T21:57:39.540Z,67.90
2018-11-28T21:59:43.450Z,68.00
2018-11-28T22:01:46.482Z,67.90
2018-11-28T22:03:49.513Z,68.00
2018-11-28T22:05:53.213Z,68.30
2018-11-28T22:07:56.300Z,68.20
2018-11-28T22:09:59.244Z,68.30
2018-11-28T22:12:02.194Z,68.30
2018-11-28T22:14:05.279Z,68.50
2018-11-28T22:16:08.233Z,68.50
2018-11-28T22:18:12.058Z,68.70
2018-11-28T22:20:14.942Z,68.60
2018-11-28T22:22:17.999Z,68.60
2018-11-28T22:24:21.802Z,68.70
2018-11-28T22:26:25.536Z,68.60
2018-11-28T22:28:28.461Z,68.60
2018-11-28T22:30:31.400Z,68.70
2018-11-28T22:32:34.459Z,68.80
2018-11-28T22:34:37.396Z,68.90
2018-11-28T22:36:40.346Z,69.00
2018-11-28T22:38:43.301Z,69.00
2018-11-28T22:40:47.002Z,69.10
2018-11-28T22:42:50.717Z,69.10
2018-11-28T22:44:53.807Z,68.90
2018-11-28T22:46:56.837Z,69.00
2018-11-28T22:48:59.769Z,69.10
2018-11-28T22:51:02.743Z,69.20
2018-11-28T22:53:05.685Z,69.30
2018-11-28T22:55:08.640Z,69.30
2018-11-28T22:57:11.740Z,69.40
2018-11-28T22:59:14.769Z,69.40
2018-11-28T23:01:18.672Z,69.50
2018-11-28T23:03:22.440Z,70.20
2018-11-28T23:05:25.387Z,69.50
2018-11-28T23:07:28.323Z,69.50
2018-11-28T23:09:32.063Z,69.60
2018-11-28T23:11:34.992Z,69.60
2018-11-28T23:13:37.947Z,69.50
2018-11-28T23:15:40.927Z,69.50
2018-11-28T23:17:43.969Z,69.60
2018-11-28T23:19:46.925Z,69.60
2018-11-28T23:21:50.148Z,69.60
2018-11-28T23:23:52.841Z,69.60
2018-11-28T23:25:55.784Z,69.60
2018-11-28T23:27:58.854Z,69.60
2018-11-28T23:30:01.803Z,69.60
2018-11-28T23:32:04.813Z,69.70
2018-11-28T23:34:07.982Z,69.70
2018-11-28T23:36:10.949Z,69.70
2018-11-28T23:38:13.877Z,69.80
2018-11-28T23:40:17.022Z,69.80
2018-11-28T23:42:19.974Z,69.90
2018-11-28T23:44:23.694Z,69.80
2018-11-28T23:46:26.677Z,69.80
2018-11-28T23:48:29.626Z,69.70
2018-11-28T23:50:33.354Z,69.80
2018-11-28T23:52:36.422Z,69.70
2018-11-28T23:54:40.223Z,69.80
2018-11-28T23:56:43.183Z,69.80
2018-11-28T23:58:46.925Z,69.40
